createdAt,value
2023-01-13T00:01:29.113Z,101166.44
2023-01-13T00:03:57.468Z,101170.66
2023-01-13T00:06:29.333Z,101166.19
2023-01-13T00:09:02.253Z,101166.47
2023-01-13T00:11:29.812Z,101171.09
2023-01-13T00:13:57.684Z,101159.66
2023-01-13T00:16:25.358Z,101160.53
2023-01-13T00:18:53.112Z,101155.19
2023-01-13T00:21:23.604Z,101163.63
2023-01-13T00:23:55.202Z,101166.28
2023-01-13T00:26:26.367Z,101171.44
2023-01-13T00:28:58.156Z,101162.69
2023-01-13T00:31:27.513Z,101167.97
2023-01-13T00:34:00.100Z,101168.81
2023-01-13T00:36:30.765Z,101171.28
2023-01-13T00:38:58.940Z,101168.38
2023-01-13T00:41:27.575Z,101161.88
2023-01-13T00:43:55.480Z,101163.63
2023-01-13T00:46:23.141Z,101161.75
2023-01-13T00:48:51.704Z,101163.81
2023-01-13T00:51:21.552Z,101147.47
2023-01-13T00:53:51.713Z,101157.03
2023-01-13T00:56:34.172Z,101153.41
2023-01-13T00:59:06.605Z,101159.59
2023-01-13T01:01:34.612Z,101155.34
2023-01-13T01:04:02.348Z,101154.34
2023-01-13T01:06:29.926Z,101152.66
2023-01-13T01:08:58.672Z,101150.38
2023-01-13T01:11:29.624Z,101138.16
2023-01-13T01:13:59.276Z,101142.34
2023-01-13T01:16:29.687Z,101136.13
2023-01-13T01:18:58.367Z,101127.25
2023-01-13T01:21:27.922Z,101133.91
2023-01-13T01:23:58.780Z,101131.87
2023-01-13T01:26:28.354Z,101134.53
2023-01-13T01:28:57.135Z,101139.25
2023-01-13T01:31:27.578Z,101134.75
2023-01-13T01:33:55.177Z,101131.66
2023-01-13T01:36:26.794Z,101138.22
2023-01-13T01:38:56.105Z,101126.78
2023-01-13T01:41:27.480Z,101130.50
2023-01-13T01:43:59.748Z,101126.31
2023-01-13T01:46:54.928Z,101128.72
2023-01-13T01:49:32.805Z,101125.50
2023-01-13T01:52:17.130Z,101123.47
2023-01-13T01:55:06.491Z,101131.78
2023-01-13T01:58:18.323Z,101128.69
2023-01-13T02:00:46.061Z,101128.63
2023-01-13T02:03:16.266Z,101126.16
2023-01-13T02:05:43.989Z,101121.56
2023-01-13T02:08:13.522Z,101121.72
2023-01-13T02:10:45.602Z,101128.41
2023-01-13T02:13:13.920Z,101113.94
2023-01-13T02:16:13.358Z,101113.03
2023-01-13T02:19:01.101Z,101109.16
2023-01-13T02:21:51.302Z,101112.19
2023-01-13T02:24:54.366Z,101104.22
2023-01-13T02:27:22.516Z,101101.53
2023-01-13T02:30:18.708Z,101104.44
2023-01-13T02:33:13.127Z,101105.66
2023-01-13T02:36:01.182Z,101097.03
2023-01-13T02:38:35.017Z,101095.09
2023-01-13T02:41:34.440Z,101086.53
2023-01-13T02:44:07.078Z,101101.50
2023-01-13T02:46:47.027Z,101095.41
2023-01-13T02:49:23.669Z,101098.69
2023-01-13T02:51:55.002Z,101094.69
2023-01-13T02:54:27.440Z,101086.66
2023-01-13T02:56:57.422Z,101087.66
2023-01-13T02:59:27.948Z,101100.38
2023-01-13T03:01:57.814Z,101089.16
2023-01-13T03:04:49.771Z,101094.72
2023-01-13T03:07:42.215Z,101092.66
2023-01-13T03:10:16.997Z,101090.50
2023-01-13T03:12:56.683Z,101093.53
2023-01-13T03:15:30.416Z,101102.03
2023-01-13T03:17:58.112Z,101098.06
2023-01-13T03:20:32.476Z,101092.25
2023-01-13T03:23:30.230Z,101096.50
2023-01-13T03:26:08.506Z,101093.75
2023-01-13T03:28:42.820Z,101090.50
2023-01-13T03:31:16.162Z,101089.81
2023-01-13T03:34:13.272Z,101081.72
2023-01-13T03:36:44.189Z,101090.19
2023-01-13T03:39:19.391Z,101097.19
2023-01-13T03:41:59.923Z,101096.03
2023-01-13T03:44:33.960Z,101099.53
2023-01-13T03:47:21.933Z,101103.41
2023-01-13T03:50:13.180Z,101097.78
2023-01-13T03:52:47.655Z,101103.75
2023-01-13T03:55:21.366Z,101104.50
2023-01-13T03:58:00.267Z,101101.19
2023-01-13T04:00:38.118Z,101096.69
2023-01-13T04:03:13.495Z,101104.72
2023-01-13T04:05:47.488Z,101102.28
2023-01-13T04:08:21.233Z,101101.66
2023-01-13T04:11:14.641Z,101096.50
2023-01-13T04:13:45.734Z,101094.63
2023-01-13T04:16:13.646Z,101088.31
2023-01-13T04:18:41.476Z,101091.44
2023-01-13T04:21:09.643Z,101089.66
2023-01-13T04:23:37.204Z,101084.31
2023-01-13T04:26:04.901Z,101084.87
2023-01-13T04:28:34.936Z,101087.63
2023-01-13T04:31:02.589Z,101081.91
2023-01-13T04:33:30.173Z,101085.69
2023-01-13T04:35:58.067Z,101082.72
2023-01-13T04:38:25.895Z,101085.94
2023-01-13T04:40:53.552Z,101085.50
2023-01-13T04:43:21.540Z,101088.28
2023-01-13T04:45:49.151Z,101087.09
2023-01-13T04:48:16.784Z,101085.94
2023-01-13T04:50:44.939Z,101084.13
2023-01-13T04:53:12.509Z,101080.47
2023-01-13T04:55:40.262Z,101077.75
2023-01-13T04:58:10.105Z,101085.50
2023-01-13T05:00:38.104Z,101079.31
2023-01-13T05:03:05.693Z,101078.19
2023-01-13T05:05:33.728Z,101081.00
2023-01-13T05:08:01.485Z,101087.28
2023-01-13T05:10:29.285Z,101078.75
2023-01-13T05:13:15.904Z,101082.66
2023-01-13T05:16:04.126Z,101079.97
2023-01-13T05:18:33.176Z,101091.75
2023-01-13T05:21:00.932Z,101095.13
2023-01-13T05:23:47.202Z,101093.75
2023-01-13T05:26:15.043Z,101097.00
2023-01-13T05:28:42.808Z,101091.81
2023-01-13T05:31:12.175Z,101091.63
2023-01-13T05:33:40.115Z,101090.84
2023-01-13T05:36:08.206Z,101079.41
2023-01-13T05:38:35.835Z,101086.53
2023-01-13T05:41:22.407Z,101084.31
2023-01-13T05:43:49.993Z,101093.59
2023-01-13T05:46:18.018Z,101085.31
2023-01-13T05:48:46.230Z,101091.91
2023-01-13T05:51:14.057Z,101097.56
2023-01-13T05:53:42.081Z,101100.94
2023-01-13T05:56:11.136Z,101103.28
2023-01-13T05:58:38.795Z,101096.47
2023-01-13T06:01:08.457Z,101095.69
2023-01-13T06:03:36.853Z,101098.69
2023-01-13T06:06:04.797Z,101103.59
2023-01-13T06:08:32.737Z,101102.94
2023-01-13T06:11:01.182Z,101102.91
2023-01-13T06:13:28.887Z,101103.72
2023-01-13T06:15:58.243Z,101106.91
2023-01-13T06:18:27.441Z,101107.00
2023-01-13T06:20:55.430Z,101115.94
2023-01-13T06:23:23.620Z,101113.41
2023-01-13T06:26:03.507Z,101120.66
2023-01-13T06:28:33.303Z,101129.72
2023-01-13T06:31:06.016Z,101131.41
2023-01-13T06:33:40.925Z,101129.00
2023-01-13T06:36:24.200Z,101128.06
2023-01-13T06:38:56.916Z,101123.25
2023-01-13T06:41:45.440Z,101128.63
2023-01-13T06:44:13.195Z,101126.84
2023-01-13T06:46:41.134Z,101130.69
2023-01-13T06:49:09.244Z,101117.94
2023-01-13T06:51:37.027Z,101125.13
2023-01-13T06:54:05.298Z,101123.62
2023-01-13T06:56:32.964Z,101123.53
2023-01-13T06:59:00.930Z,101123.12
2023-01-13T07:01:28.976Z,101129.19
2023-01-13T07:03:58.183Z,101136.22
2023-01-13T07:06:25.911Z,101125.94
2023-01-13T07:08:53.763Z,101129.13
2023-01-13T07:11:21.573Z,101123.00
2023-01-13T07:14:07.934Z,101135.97
2023-01-13T07:16:35.891Z,101139.97
2023-01-13T07:19:04.230Z,101134.31
2023-01-13T07:21:31.998Z,101138.94
2023-01-13T07:24:00.156Z,101144.97
2023-01-13T07:26:27.774Z,101129.22
2023-01-13T07:28:55.355Z,101129.88
2023-01-13T07:31:23.544Z,101131.75
2023-01-13T07:33:51.401Z,101128.72
2023-01-13T07:36:19.010Z,101134.59
2023-01-13T07:38:46.992Z,101138.81
2023-01-13T07:41:34.192Z,101134.34
2023-01-13T07:44:06.131Z,101141.47
2023-01-13T07:46:34.046Z,101148.22
2023-01-13T07:49:01.954Z,101147.25
2023-01-13T07:51:29.806Z,101143.94
2023-01-13T07:53:57.579Z,101149.72
2023-01-13T07:56:25.539Z,101152.09
2023-01-13T07:58:53.522Z,101156.78
2023-01-13T08:01:21.500Z,101158.69
2023-01-13T08:03:49.540Z,101160.69
2023-01-13T08:06:17.361Z,101158.84
2023-01-13T08:08:45.163Z,101163.31
2023-01-13T08:11:13.044Z,101158.63
2023-01-13T08:13:40.662Z,101164.12
2023-01-13T08:16:11.570Z,101161.84
2023-01-13T08:18:40.213Z,101163.06
2023-01-13T08:21:11.475Z,101158.72
2023-01-13T08:23:40.545Z,101153.28
2023-01-13T08:26:11.441Z,101160.25
2023-01-13T08:28:42.981Z,101170.06
2023-01-13T08:31:16.908Z,101161.78
2023-01-13T08:33:45.612Z,101163.38
2023-01-13T08:36:13.933Z,101163.97
2023-01-13T08:38:42.167Z,101168.00
2023-01-13T08:41:12.488Z,101171.78
2023-01-13T08:43:40.751Z,101168.50
2023-01-13T08:46:08.403Z,101171.41
2023-01-13T08:48:36.643Z,101176.97
2023-01-13T08:51:06.609Z,101183.91
2023-01-13T08:53:34.416Z,101173.41
2023-01-13T08:56:02.468Z,101180.19
2023-01-13T08:58:30.121Z,101180.00
2023-01-13T09:00:57.982Z,101179.81
2023-01-13T09:03:26.079Z,101173.81
2023-01-13T09:05:53.748Z,101178.91
2023-01-13T09:08:21.491Z,101167.06
2023-01-13T09:10:49.502Z,101171.28
2023-01-13T09:13:21.805Z,101173.44
2023-01-13T09:15:49.896Z,101168.28
2023-01-13T09:18:17.498Z,101177.62
2023-01-13T09:20:45.100Z,101171.03
2023-01-13T09:23:13.246Z,101170.06
2023-01-13T09:25:40.921Z,101174.97
2023-01-13T09:28:08.919Z,101159.72
2023-01-13T09:30:37.816Z,101160.81
2023-01-13T09:33:24.361Z,101159.34
2023-01-13T09:35:52.320Z,101153.59
2023-01-13T09:38:20.009Z,101158.97
2023-01-13T09:40:49.528Z,101151.87
2023-01-13T09:43:41.822Z,101156.22
2023-01-13T09:46:37.469Z,101146.53
2023-01-13T09:49:05.887Z,101139.56
2023-01-13T09:51:39.397Z,101133.06
2023-01-13T09:54:16.587Z,101139.81
2023-01-13T09:56:44.453Z,101126.78
2023-01-13T09:59:12.820Z,101130.50
2023-01-13T10:02:02.264Z,101126.81
2023-01-13T10:04:30.224Z,101114.59
2023-01-13T10:07:05.910Z,101114.06
2023-01-13T10:09:51.437Z,101109.75
2023-01-13T10:12:45.333Z,101113.41
2023-01-13T10:15:26.206Z,101109.91
2023-01-13T10:18:09.296Z,101109.81
2023-01-13T10:20:52.878Z,101109.78
2023-01-13T10:23:46.474Z,101103.75
2023-01-13T10:26:34.273Z,101093.66
2023-01-13T10:29:01.914Z,101091.97
2023-01-13T10:31:29.891Z,101092.50
2023-01-13T10:34:04.155Z,101094.34
2023-01-13T10:36:32.167Z,101085.38
2023-01-13T10:39:14.917Z,101080.31
2023-01-13T10:41:44.175Z,101084.47
2023-01-13T10:44:18.947Z,101074.09
2023-01-13T10:46:58.268Z,101066.94
2023-01-13T10:49:32.709Z,101073.56
2023-01-13T10:52:02.150Z,101079.12
2023-01-13T10:54:30.586Z,101078.19
2023-01-13T10:57:20.733Z,101074.37
2023-01-13T10:59:51.010Z,101066.91
2023-01-13T11:02:29.463Z,101066.66
2023-01-13T11:05:03.260Z,101063.19
2023-01-13T11:07:38.884Z,101062.00
2023-01-13T11:10:09.739Z,101057.84
2023-01-13T11:12:58.636Z,101056.50
2023-01-13T11:15:45.416Z,101047.72
2023-01-13T11:18:16.057Z,101049.72
2023-01-13T11:20:47.766Z,101051.31
2023-01-13T11:23:29.881Z,101046.34
2023-01-13T11:26:27.275Z,101045.88
2023-01-13T11:29:09.806Z,101037.97
2023-01-13T11:31:54.383Z,101034.16
2023-01-13T11:34:39.648Z,101038.56
2023-01-13T11:37:19.198Z,101033.13
2023-01-13T11:39:48.371Z,101030.84
2023-01-13T11:42:32.113Z,101022.66
2023-01-13T11:45:16.893Z,101021.28
2023-01-13T11:47:48.389Z,101018.34
2023-01-13T11:50:43.594Z,101010.34
2023-01-13T11:53:26.362Z,101010.19
2023-01-13T11:56:02.135Z,101008.12
2023-01-13T11:58:51.213Z,101024.53
2023-01-13T12:01:57.271Z,101019.47
2023-01-13T12:04:25.351Z,101007.00
2023-01-13T12:07:01.903Z,101013.28
2023-01-13T12:09:54.848Z,101019.34
2023-01-13T12:12:23.391Z,101024.00
2023-01-13T12:15:18.570Z,101019.13
2023-01-13T12:17:46.146Z,101024.66
2023-01-13T12:21:03.888Z,101039.00
2023-01-13T12:23:50.490Z,101020.03
2023-01-13T12:26:18.464Z,101018.22
2023-01-13T12:28:54.711Z,101023.66
2023-01-13T12:31:23.686Z,101023.56
2023-01-13T12:34:00.311Z,101013.94
2023-01-13T12:36:39.499Z,101016.66
2023-01-13T12:39:19.460Z,101020.25
2023-01-13T12:42:37.071Z,101020.06
2023-01-13T12:45:22.167Z,101019.25
2023-01-13T12:47:50.677Z,101016.66
2023-01-13T12:50:24.841Z,101013.81
2023-01-13T12:52:55.276Z,101017.34
2023-01-13T12:55:36.039Z,101013.50
2023-01-13T12:58:06.839Z,101016.75
2023-01-13T13:00:38.608Z,101012.38
2023-01-13T13:03:12.491Z,101012.66
2023-01-13T13:06:03.661Z,101010.91
2023-01-13T13:08:37.857Z,101013.41
2023-01-13T13:11:37.976Z,101020.41
2023-01-13T13:14:13.888Z,101012.47
2023-01-13T13:16:46.416Z,101007.72
2023-01-13T13:19:18.092Z,101014.31
2023-01-13T13:22:13.231Z,101019.13
2023-01-13T13:24:43.155Z,101016.19
2023-01-13T13:27:35.895Z,101017.53
2023-01-13T13:30:26.583Z,101020.72
2023-01-13T13:33:15.386Z,101009.06
2023-01-13T13:35:52.980Z,101006.28
2023-01-13T13:39:03.396Z,101010.69
2023-01-13T13:41:54.692Z,101014.97
2023-01-13T13:45:01.233Z,101008.72
2023-01-13T13:47:39.024Z,101006.50
2023-01-13T13:50:18.475Z,101007.19
2023-01-13T13:52:55.780Z,101001.41
2023-01-13T13:55:28.728Z,100999.25
2023-01-13T13:57:58.948Z,101001.47
2023-01-13T14:00:34.285Z,101006.25
2023-01-13T14:03:17.292Z,101003.31
2023-01-13T14:06:13.575Z,101009.41
2023-01-13T14:08:46.657Z,101004.34
2023-01-13T14:11:33.951Z,100995.56
2023-01-13T14:14:07.217Z,101002.38
2023-01-13T14:16:38.245Z,101003.03
2023-01-13T14:19:06.476Z,100997.72
2023-01-13T14:21:34.349Z,101007.13
2023-01-13T14:24:16.508Z,101010.91
2023-01-13T14:26:44.449Z,101007.25
2023-01-13T14:29:18.538Z,101006.50
2023-01-13T14:31:47.634Z,101006.25
2023-01-13T14:34:31.017Z,101006.47
2023-01-13T14:37:02.959Z,101006.34
2023-01-13T14:39:40.979Z,101006.91
2023-01-13T14:42:17.200Z,101013.56
2023-01-13T14:44:47.419Z,101010.44
2023-01-13T14:47:28.053Z,101008.75
2023-01-13T14:50:11.262Z,101003.47
2023-01-13T14:52:55.684Z,101010.56
2023-01-13T14:55:33.779Z,101006.37
2023-01-13T14:58:20.630Z,101008.28
2023-01-13T15:00:52.567Z,101003.88
2023-01-13T15:03:21.415Z,101012.91
2023-01-13T15:05:51.732Z,101006.69
2023-01-13T15:08:27.425Z,101008.97
2023-01-13T15:11:06.708Z,101009.78
2023-01-13T15:13:50.452Z,101007.63
2023-01-13T15:16:25.405Z,101006.63
2023-01-13T15:18:55.210Z,101010.69
2023-01-13T15:21:23.657Z,101017.66
2023-01-13T15:23:51.518Z,101017.66
2023-01-13T15:26:26.759Z,101023.25
2023-01-13T15:28:56.951Z,101019.75
2023-01-13T15:31:26.104Z,101019.81
2023-01-13T15:33:54.777Z,101024.16
2023-01-13T15:36:24.908Z,101013.69
2023-01-13T15:38:53.069Z,101017.84
2023-01-13T15:41:40.931Z,101026.13
2023-01-13T15:44:31.756Z,101024.56
2023-01-13T15:47:02.644Z,101020.91
2023-01-13T15:49:35.157Z,101025.75
2023-01-13T15:52:22.485Z,101019.22
2023-01-13T15:54:51.598Z,101017.22
2023-01-13T15:57:30.192Z,101015.88
2023-01-13T16:00:01.730Z,101017.47
2023-01-13T16:02:34.674Z,101015.53
2023-01-13T16:05:02.627Z,101017.78
2023-01-13T16:07:30.390Z,101012.81
2023-01-13T16:09:59.624Z,101022.78
2023-01-13T16:12:27.729Z,101024.31
2023-01-13T16:14:55.410Z,101021.91
2023-01-13T16:17:25.159Z,101032.72
2023-01-13T16:19:53.973Z,101032.38
2023-01-13T16:22:23.240Z,101030.66
2023-01-13T16:24:50.832Z,101036.78
2023-01-13T16:27:21.489Z,101028.66
2023-01-13T16:29:50.797Z,101027.50
2023-01-13T16:32:21.081Z,101036.31
2023-01-13T16:34:49.409Z,101013.16
2023-01-13T16:37:25.078Z,101021.81
2023-01-13T16:39:54.733Z,101018.19
2023-01-13T16:42:22.887Z,101025.44
2023-01-13T16:44:52.949Z,101023.16
2023-01-13T16:47:22.825Z,101015.25
2023-01-13T16:49:53.796Z,101017.69
2023-01-13T16:52:22.353Z,101020.47
2023-01-13T16:54:50.060Z,101020.78
2023-01-13T16:57:17.788Z,101019.59
2023-01-13T16:59:46.174Z,101029.69
2023-01-13T17:02:15.643Z,101020.59
2023-01-13T17:04:43.537Z,101025.06
2023-01-13T17:07:16.953Z,101015.44
2023-01-13T17:09:44.779Z,101018.53
2023-01-13T17:12:13.297Z,101024.63
2023-01-13T17:14:43.371Z,101026.87
2023-01-13T17:17:22.983Z,101022.63
2023-01-13T17:19:52.781Z,101024.13
2023-01-13T17:22:21.412Z,101017.13
2023-01-13T17:24:49.016Z,101016.56
2023-01-13T17:27:18.641Z,101016.91
2023-01-13T17:29:47.555Z,101015.31
2023-01-13T17:32:17.926Z,101023.25
2023-01-13T17:34:46.041Z,101022.09
2023-01-13T17:37:14.587Z,101020.06
2023-01-13T17:39:44.330Z,101020.56
2023-01-13T17:42:13.327Z,101024.19
2023-01-13T17:44:41.205Z,101024.84
2023-01-13T17:47:08.795Z,101016.97
2023-01-13T17:49:37.034Z,101026.84
2023-01-13T17:52:05.278Z,101026.19
2023-01-13T17:54:33.582Z,101035.34
2023-01-13T17:57:01.834Z,101032.28
2023-01-13T17:59:29.506Z,101031.62
2023-01-13T18:01:57.309Z,101032.53
2023-01-13T18:04:28.929Z,101023.72
2023-01-13T18:06:59.260Z,101026.13
2023-01-13T18:09:27.241Z,101025.94
2023-01-13T18:11:54.901Z,101027.91
2023-01-13T18:14:22.614Z,101024.47
2023-01-13T18:16:51.378Z,101021.31
2023-01-13T18:19:37.971Z,101021.59
2023-01-13T18:22:24.740Z,101025.03
2023-01-13T18:25:10.628Z,101023.47
2023-01-13T18:27:41.414Z,101021.06
2023-01-13T18:30:15.007Z,101023.53
2023-01-13T18:32:42.948Z,101019.63
2023-01-13T18:35:10.942Z,101027.53
2023-01-13T18:37:41.985Z,101020.72
2023-01-13T18:40:14.077Z,101024.78
2023-01-13T18:42:52.186Z,101022.50
2023-01-13T18:45:31.374Z,101031.75
2023-01-13T18:48:01.715Z,101023.78
2023-01-13T18:50:30.345Z,101024.25
2023-01-13T18:52:58.904Z,101034.16
2023-01-13T18:55:28.640Z,101032.78
2023-01-13T18:57:57.445Z,101031.34
2023-01-13T19:00:26.903Z,101042.94
2023-01-13T19:05:36.113Z,101041.59
2023-01-13T19:08:05.019Z,101052.72
2023-01-13T19:10:33.064Z,101055.59
2023-01-13T19:13:01.661Z,101057.19
2023-01-13T19:15:30.317Z,101062.38
2023-01-13T19:17:58.544Z,101056.63
2023-01-13T19:20:26.717Z,101060.81
2023-01-13T19:22:54.577Z,101061.03
2023-01-13T19:25:22.306Z,101065.47
2023-01-13T19:27:50.435Z,101070.06
2023-01-13T19:30:19.519Z,101066.56
2023-01-13T19:32:47.533Z,101063.19
2023-01-13T19:35:18.019Z,101054.81
2023-01-13T19:37:45.838Z,101056.53
2023-01-13T19:40:14.619Z,101053.44
2023-01-13T19:43:02.403Z,101052.56
2023-01-13T19:45:32.205Z,101049.28
2023-01-13T19:48:05.565Z,101049.63
2023-01-13T19:50:39.839Z,101054.19
2023-01-13T19:53:14.367Z,101054.66
2023-01-13T19:55:47.724Z,101059.53
2023-01-13T19:58:19.983Z,101069.50
2023-01-13T20:00:48.513Z,101073.81
2023-01-13T20:03:20.593Z,101067.13
2023-01-13T20:05:48.224Z,101070.16
2023-01-13T20:08:18.094Z,101073.31
2023-01-13T20:10:46.716Z,101070.03
2023-01-13T20:13:15.874Z,101074.56
2023-01-13T20:15:44.098Z,101078.28
2023-01-13T20:18:11.839Z,101076.22
2023-01-13T20:20:41.274Z,101062.47
2023-01-13T20:23:09.599Z,101078.00
2023-01-13T20:25:37.338Z,101075.97
2023-01-13T20:28:07.224Z,101086.91
2023-01-13T20:30:35.245Z,101086.12
2023-01-13T20:33:02.884Z,101082.28
2023-01-13T20:35:30.462Z,101081.91
2023-01-13T20:37:58.673Z,101075.25
2023-01-13T20:40:26.359Z,101071.47
2023-01-13T20:42:54.764Z,101075.84
2023-01-13T20:45:23.445Z,101070.63
2023-01-13T20:47:51.271Z,101074.84
2023-01-13T20:50:19.743Z,101069.03
2023-01-13T20:52:48.021Z,101079.75
2023-01-13T20:55:15.681Z,101082.06
2023-01-13T20:57:43.701Z,101081.63
2023-01-13T21:00:12.164Z,101079.03
2023-01-13T21:02:41.662Z,101080.34
2023-01-13T21:05:10.141Z,101072.09
2023-01-13T21:07:38.119Z,101072.34
2023-01-13T21:10:07.135Z,101074.84
2023-01-13T21:12:53.400Z,101071.13
2023-01-13T21:15:22.174Z,101074.25
2023-01-13T21:18:10.014Z,101066.81
2023-01-13T21:20:39.106Z,101070.66
2023-01-13T21:23:07.463Z,101077.03
2023-01-13T21:25:37.245Z,101065.66
2023-01-13T21:28:11.081Z,101068.84
2023-01-13T21:30:39.674Z,101069.88
2023-01-13T21:33:08.248Z,101075.88
2023-01-13T21:35:38.867Z,101076.94
2023-01-13T21:38:07.106Z,101079.75
2023-01-13T21:40:34.972Z,101081.22
2023-01-13T21:43:21.426Z,101078.81
2023-01-13T21:46:07.948Z,101069.09
2023-01-13T21:48:35.704Z,101062.34
2023-01-13T21:51:03.979Z,101066.56
2023-01-13T21:53:31.804Z,101074.13
2023-01-13T21:55:59.463Z,101079.66
2023-01-13T21:58:27.446Z,101085.78
2023-01-13T22:00:55.244Z,101092.97
2023-01-13T22:03:23.290Z,101095.56
2023-01-13T22:05:55.715Z,101104.25
2023-01-13T22:08:23.685Z,101103.88
2023-01-13T22:10:57.591Z,101118.41
2023-01-13T22:13:47.646Z,101107.44
2023-01-13T22:16:16.067Z,101113.31
2023-01-13T22:18:43.999Z,101111.28
2023-01-13T22:21:11.619Z,101117.28
2023-01-13T22:23:39.252Z,101117.50
2023-01-13T22:26:08.240Z,101121.94
2023-01-13T22:28:42.887Z,101119.34
2023-01-13T22:31:15.258Z,101114.38
2023-01-13T22:33:43.683Z,101116.84
2023-01-13T22:36:11.511Z,101106.81
2023-01-13T22:38:39.723Z,101100.63
2023-01-13T22:41:09.506Z,101105.69
2023-01-13T22:43:38.137Z,101108.41
2023-01-13T22:46:11.097Z,101112.69
2023-01-13T22:48:40.556Z,101095.47
2023-01-13T22:51:16.164Z,101100.75
2023-01-13T22:53:44.677Z,101094.78
2023-01-13T22:56:20.974Z,101097.75
2023-01-13T22:58:56.057Z,101102.44
2023-01-13T23:01:25.090Z,101095.16
2023-01-13T23:03:53.489Z,101104.22
2023-01-13T23:06:22.987Z,101107.03
2023-01-13T23:08:51.339Z,101112.13
2023-01-13T23:11:20.961Z,101115.37
2023-01-13T23:13:48.532Z,101117.84
2023-01-13T23:16:24.044Z,101121.66
2023-01-13T23:18:52.048Z,101118.56
2023-01-13T23:21:23.063Z,101120.28
2023-01-13T23:23:51.074Z,101117.84
2023-01-13T23:26:19.691Z,101118.91
2023-01-13T23:28:48.107Z,101118.34
2023-01-13T23:31:18.626Z,101121.50
2023-01-13T23:33:47.331Z,101107.97
2023-01-13T23:36:18.187Z,101109.22
2023-01-13T23:38:46.866Z,101105.25
2023-01-13T23:41:17.384Z,101097.13
2023-01-13T23:43:59.710Z,101092.72
2023-01-13T23:46:30.305Z,101094.44
2023-01-13T23:48:58.079Z,101086.81
2023-01-13T23:51:27.554Z,101091.28
2023-01-13T23:53:56.321Z,101082.38
2023-01-13T23:56:27.235Z,101090.81
2023-01-13T23:58:55.532Z,101095.09
